Terminal Aerodrome Forecast
Issued by NWS Melbourne, FL

Home | Current Version | Previous Version | Text Only | Print | Product List | Glossary On
Versions: 1 2 3 4 5 6 7 8 9 10 11 12 13 14 15 16 17 18 19 20 21
373
FTUS42 KMLB 182103 AAB
TAFMLB
TAF AMD
KMLB 182103Z 1821/1918 08014G20KT P6SM VCSH SCT025 BKN040
      TEMPO 1821/1822 3SM SHRA BKN020
     FM190000 06009KT P6SM FEW030 BKN050
     FM191500 04013G19KT P6SM SCT020 BKN040=

USA.gov is the U.S. government's official web portal to all federal, state and local government web resources and services.